sensor_id;sensor_type;location;lat;lon;timestamp;P1;durP1;ratioP1;P2;durP2;ratioP2
1062;SDS011;520;50.932;6.962;2023-12-20T00:01:11;4.80;;;4.40;;
1062;SDS011;520;50.932;6.962;2023-12-20T00:03:49;4.97;;;4.47;;
1062;SDS011;520;50.932;6.962;2023-12-20T00:06:38;5.00;;;4.60;;
1062;SDS011;520;50.932;6.962;2023-12-20T00:09:11;5.17;;;4.47;;
1062;SDS011;520;50.932;6.962;2023-12-20T00:11:53;5.53;;;4.90;;
1062;SDS011;520;50.932;6.962;2023-12-20T00:14:25;5.87;;;5.30;;
1062;SDS011;520;50.932;6.962;2023-12-20T00:17:03;5.40;;;4.90;;
1062;SDS011;520;50.932;6.962;2023-12-20T00:19:40;4.83;;;4.43;;
1062;SDS011;520;50.932;6.962;2023-12-20T00:22:07;4.93;;;4.20;;
1062;SDS011;520;50.932;6.962;2023-12-20T00:24:45;5.03;;;4.53;;
1062;SDS011;520;50.932;6.962;2023-12-20T00:27:17;5.70;;;4.63;;
1062;SDS011;520;50.932;6.962;2023-12-20T00:29:50;4.87;;;4.47;;
1062;SDS011;520;50.932;6.962;2023-12-20T00:32:23;6.53;;;5.57;;
1062;SDS011;520;50.932;6.962;2023-12-20T00:34:56;4.70;;;4.27;;
1062;SDS011;520;50.932;6.962;2023-12-20T00:37:28;4.20;;;3.90;;
1062;SDS011;520;50.932;6.962;2023-12-20T00:40:05;5.20;;;4.80;;
1062;SDS011;520;50.932;6.962;2023-12-20T00:42:39;4.50;;;4.10;;
1062;SDS011;520;50.932;6.962;2023-12-20T00:45:10;4.10;;;3.70;;
1062;SDS011;520;50.932;6.962;2023-12-20T00:47:43;3.53;;;3.23;;
1062;SDS011;520;50.932;6.962;2023-12-20T00:50:21;4.27;;;3.87;;
1062;SDS011;520;50.932;6.962;2023-12-20T00:52:55;2.90;;;2.70;;
1062;SDS011;520;50.932;6.962;2023-12-20T00:55:27;3.47;;;3.00;;
1062;SDS011;520;50.932;6.962;2023-12-20T00:57:54;4.00;;;3.00;;
1062;SDS011;520;50.932;6.962;2023-12-20T01:00:28;3.27;;;3.00;;
1062;SDS011;520;50.932;6.962;2023-12-20T01:03:01;2.97;;;2.77;;
1062;SDS011;520;50.932;6.962;2023-12-20T01:05:37;3.63;;;3.03;;
1062;SDS011;520;50.932;6.962;2023-12-20T01:08:10;4.90;;;2.90;;
1062;SDS011;520;50.932;6.962;2023-12-20T01:10:45;2.90;;;2.60;;
1062;SDS011;520;50.932;6.962;2023-12-20T01:13:16;3.73;;;3.00;;
1062;SDS011;520;50.932;6.962;2023-12-20T01:15:54;3.30;;;3.00;;
1062;SDS011;520;50.932;6.962;2023-12-20T01:18:27;3.37;;;3.03;;
1062;SDS011;520;50.932;6.962;2023-12-20T01:21:21;4.13;;;3.10;;
1062;SDS011;520;50.932;6.962;2023-12-20T01:24:10;4.73;;;3.80;;
1062;SDS011;520;50.932;6.962;2023-12-20T01:26:43;3.63;;;3.33;;
1062;SDS011;520;50.932;6.962;2023-12-20T01:29:23;4.90;;;4.10;;
1062;SDS011;520;50.932;6.962;2023-12-20T01:32:32;4.10;;;3.33;;
1062;SDS011;520;50.932;6.962;2023-12-20T01:35:09;5.50;;;3.67;;
1062;SDS011;520;50.932;6.962;2023-12-20T01:37:58;4.80;;;3.70;;
1062;SDS011;520;50.932;6.962;2023-12-20T01:40:28;5.93;;;4.03;;
1062;SDS011;520;50.932;6.962;2023-12-20T01:42:59;6.20;;;4.20;;
1062;SDS011;520;50.932;6.962;2023-12-20T01:45:26;7.40;;;4.67;;
1062;SDS011;520;50.932;6.962;2023-12-20T01:48:02;5.20;;;3.97;;
1062;SDS011;520;50.932;6.962;2023-12-20T01:50:35;6.20;;;4.20;;
1062;SDS011;520;50.932;6.962;2023-12-20T01:53:04;5.53;;;4.53;;
1062;SDS011;520;50.932;6.962;2023-12-20T01:55:44;7.43;;;4.97;;
1062;SDS011;520;50.932;6.962;2023-12-20T01:58:15;7.97;;;6.07;;
1062;SDS011;520;50.932;6.962;2023-12-20T02:00:49;8.60;;;6.13;;
1062;SDS011;520;50.932;6.962;2023-12-20T02:03:17;8.33;;;6.53;;
1062;SDS011;520;50.932;6.962;2023-12-20T02:05:48;12.27;;;8.03;;
1062;SDS011;520;50.932;6.962;2023-12-20T02:08:20;6.87;;;6.17;;
1062;SDS011;520;50.932;6.962;2023-12-20T02:10:57;8.23;;;6.40;;
1062;SDS011;520;50.932;6.962;2023-12-20T02:13:32;13.67;;;6.40;;
1062;SDS011;520;50.932;6.962;2023-12-20T02:16:03;8.30;;;5.33;;
1062;SDS011;520;50.932;6.962;2023-12-20T02:18:30;9.03;;;5.63;;
1062;SDS011;520;50.932;6.962;2023-12-20T02:21:04;7.60;;;5.10;;
1062;SDS011;520;50.932;6.962;2023-12-20T02:23:35;9.60;;;5.07;;
1062;SDS011;520;50.932;6.962;2023-12-20T02:26:06;10.83;;;4.23;;
1062;SDS011;520;50.932;6.962;2023-12-20T02:32:17;7.73;;;2.67;;
1062;SDS011;520;50.932;6.962;2023-12-20T02:38:46;7.53;;;3.43;;
1062;SDS011;520;50.932;6.962;2023-12-20T02:42:06;9.30;;;4.40;;
1062;SDS011;520;50.932;6.962;2023-12-20T02:44:50;7.10;;;2.67;;
1062;SDS011;520;50.932;6.962;2023-12-20T02:47:24;6.33;;;2.70;;
1062;SDS011;520;50.932;6.962;2023-12-20T02:50:16;5.47;;;2.70;;
1062;SDS011;520;50.932;6.962;2023-12-20T02:52:59;3.60;;;2.00;;
1062;SDS011;520;50.932;6.962;2023-12-20T02:55:29;8.17;;;2.53;;
1062;SDS011;520;50.932;6.962;2023-12-20T02:58:24;7.77;;;2.93;;
1062;SDS011;520;50.932;6.962;2023-12-20T03:01:31;4.23;;;1.90;;
1062;SDS011;520;50.932;6.962;2023-12-20T03:04:13;4.20;;;2.07;;
1062;SDS011;520;50.932;6.962;2023-12-20T03:10:18;6.80;;;2.77;;
1062;SDS011;520;50.932;6.962;2023-12-20T03:13:21;3.00;;;1.80;;
1062;SDS011;520;50.932;6.962;2023-12-20T03:15:56;4.00;;;1.90;;
1062;SDS011;520;50.932;6.962;2023-12-20T03:22:00;9.00;;;2.37;;
1062;SDS011;520;50.932;6.962;2023-12-20T03:24:48;4.30;;;1.90;;
1062;SDS011;520;50.932;6.962;2023-12-20T03:27:28;4.70;;;1.53;;
1062;SDS011;520;50.932;6.962;2023-12-20T03:53:42;4.27;;;1.80;;
1062;SDS011;520;50.932;6.962;2023-12-20T03:56:20;8.63;;;2.10;;
1062;SDS011;520;50.932;6.962;2023-12-20T03:58:54;7.03;;;2.00;;
1062;SDS011;520;50.932;6.962;2023-12-20T04:01:33;5.83;;;2.47;;
1062;SDS011;520;50.932;6.962;2023-12-20T04:04:32;6.10;;;2.40;;
1062;SDS011;520;50.932;6.962;2023-12-20T04:07:09;6.70;;;2.07;;
1062;SDS011;520;50.932;6.962;2023-12-20T04:09:41;4.10;;;2.10;;
1062;SDS011;520;50.932;6.962;2023-12-20T04:12:19;4.57;;;2.10;;
1062;SDS011;520;50.932;6.962;2023-12-20T04:14:57;13.93;;;2.40;;
1062;SDS011;520;50.932;6.962;2023-12-20T04:17:37;3.37;;;2.27;;
1062;SDS011;520;50.932;6.962;2023-12-20T04:20:19;9.27;;;2.57;;
1062;SDS011;520;50.932;6.962;2023-12-20T04:23:03;6.17;;;2.30;;
1062;SDS011;520;50.932;6.962;2023-12-20T04:25:33;3.47;;;1.70;;
1062;SDS011;520;50.932;6.962;2023-12-20T04:28:13;6.03;;;2.23;;
1062;SDS011;520;50.932;6.962;2023-12-20T04:30:57;3.30;;;2.10;;
1062;SDS011;520;50.932;6.962;2023-12-20T04:33:27;2.97;;;1.97;;
1062;SDS011;520;50.932;6.962;2023-12-20T04:36:19;3.60;;;2.30;;
1062;SDS011;520;50.932;6.962;2023-12-20T04:39:06;7.63;;;3.30;;
1062;SDS011;520;50.932;6.962;2023-12-20T04:41:40;12.57;;;3.53;;
1062;SDS011;520;50.932;6.962;2023-12-20T04:44:43;8.90;;;2.90;;
1062;SDS011;520;50.932;6.962;2023-12-20T04:47:16;6.83;;;2.23;;
1062;SDS011;520;50.932;6.962;2023-12-20T04:49:52;9.60;;;3.30;;
1062;SDS011;520;50.932;6.962;2023-12-20T04:52:23;4.67;;;2.10;;
1062;SDS011;520;50.932;6.962;2023-12-20T04:55:07;5.70;;;2.37;;
1062;SDS011;520;50.932;6.962;2023-12-20T04:57:47;4.23;;;2.30;;
1062;SDS011;520;50.932;6.962;2023-12-20T05:00:24;7.00;;;2.73;;
1062;SDS011;520;50.932;6.962;2023-12-20T05:03:16;4.10;;;2.50;;
1062;SDS011;520;50.932;6.962;2023-12-20T05:06:03;6.70;;;2.47;;
1062;SDS011;520;50.932;6.962;2023-12-20T05:08:51;7.80;;;2.97;;
1062;SDS011;520;50.932;6.962;2023-12-20T05:11:29;6.03;;;2.10;;
1062;SDS011;520;50.932;6.962;2023-12-20T05:14:04;6.77;;;2.50;;
1062;SDS011;520;50.932;6.962;2023-12-20T05:16:39;5.13;;;2.50;;
1062;SDS011;520;50.932;6.962;2023-12-20T05:19:22;4.23;;;2.43;;
1062;SDS011;520;50.932;6.962;2023-12-20T05:22:31;8.47;;;3.17;;
1062;SDS011;520;50.932;6.962;2023-12-20T05:25:18;7.83;;;2.40;;
1062;SDS011;520;50.932;6.962;2023-12-20T05:27:48;7.33;;;2.77;;
1062;SDS011;520;50.932;6.962;2023-12-20T05:30:21;10.47;;;3.07;;
1062;SDS011;520;50.932;6.962;2023-12-20T05:35:51;7.30;;;3.33;;
1062;SDS011;520;50.932;6.962;2023-12-20T05:39:04;8.00;;;3.03;;
1062;SDS011;520;50.932;6.962;2023-12-20T05:41:54;5.90;;;2.57;;
1062;SDS011;520;50.932;6.962;2023-12-20T05:44:44;8.60;;;3.17;;
1062;SDS011;520;50.932;6.962;2023-12-20T05:47:33;7.80;;;3.83;;
1062;SDS011;520;50.932;6.962;2023-12-20T05:50:36;6.00;;;2.53;;
1062;SDS011;520;50.932;6.962;2023-12-20T05:53:09;5.87;;;2.97;;
1062;SDS011;520;50.932;6.962;2023-12-20T05:56:13;9.47;;;3.00;;
1062;SDS011;520;50.932;6.962;2023-12-20T05:58:58;7.17;;;2.70;;
1062;SDS011;520;50.932;6.962;2023-12-20T06:04:52;8.03;;;3.27;;
1062;SDS011;520;50.932;6.962;2023-12-20T06:07:46;7.23;;;2.73;;
1062;SDS011;520;50.932;6.962;2023-12-20T06:10:31;5.43;;;2.23;;
1062;SDS011;520;50.932;6.962;2023-12-20T06:13:34;7.10;;;2.77;;
1062;SDS011;520;50.932;6.962;2023-12-20T06:16:09;8.67;;;2.47;;
1062;SDS011;520;50.932;6.962;2023-12-20T06:18:53;7.10;;;2.90;;
1062;SDS011;520;50.932;6.962;2023-12-20T06:24:31;13.93;;;3.60;;
1062;SDS011;520;50.932;6.962;2023-12-20T06:27:23;11.00;;;3.07;;
1062;SDS011;520;50.932;6.962;2023-12-20T06:33:11;8.90;;;5.70;;
1062;SDS011;520;50.932;6.962;2023-12-20T06:36:14;7.87;;;3.40;;
1062;SDS011;520;50.932;6.962;2023-12-20T06:38:52;11.10;;;3.57;;
1062;SDS011;520;50.932;6.962;2023-12-20T06:41:47;10.07;;;3.17;;
1062;SDS011;520;50.932;6.962;2023-12-20T06:44:40;10.20;;;2.90;;
1062;SDS011;520;50.932;6.962;2023-12-20T06:47:20;11.10;;;3.37;;
1062;SDS011;520;50.932;6.962;2023-12-20T06:50:12;6.37;;;2.90;;
1062;SDS011;520;50.932;6.962;2023-12-20T06:55:36;10.97;;;3.53;;
1062;SDS011;520;50.932;6.962;2023-12-20T07:01:42;17.60;;;3.70;;
1062;SDS011;520;50.932;6.962;2023-12-20T07:07:22;5.80;;;2.30;;
1062;SDS011;520;50.932;6.962;2023-12-20T07:10:16;11.80;;;2.50;;
1062;SDS011;520;50.932;6.962;2023-12-20T07:13:20;6.27;;;2.80;;
1062;SDS011;520;50.932;6.962;2023-12-20T07:16:06;5.20;;;3.20;;
1062;SDS011;520;50.932;6.962;2023-12-20T07:18:48;4.83;;;3.70;;
1062;SDS011;520;50.932;6.962;2023-12-20T07:24:49;9.03;;;3.17;;
1062;SDS011;520;50.932;6.962;2023-12-20T07:27:23;11.10;;;3.30;;
1062;SDS011;520;50.932;6.962;2023-12-20T07:30:20;9.60;;;4.23;;
1062;SDS011;520;50.932;6.962;2023-12-20T07:35:29;8.80;;;3.53;;
1062;SDS011;520;50.932;6.962;2023-12-20T07:38:10;7.43;;;3.50;;
1062;SDS011;520;50.932;6.962;2023-12-20T07:40:45;8.90;;;3.80;;
1062;SDS011;520;50.932;6.962;2023-12-20T07:43:46;9.90;;;3.77;;
1062;SDS011;520;50.932;6.962;2023-12-20T07:46:39;7.10;;;3.20;;
1062;SDS011;520;50.932;6.962;2023-12-20T07:49:20;5.70;;;3.20;;
1062;SDS011;520;50.932;6.962;2023-12-20T07:52:23;9.83;;;3.70;;
1062;SDS011;520;50.932;6.962;2023-12-20T07:55:03;7.67;;;3.87;;
1062;SDS011;520;50.932;6.962;2023-12-20T07:57:34;10.97;;;3.70;;
1062;SDS011;520;50.932;6.962;2023-12-20T08:00:24;10.53;;;3.50;;
1062;SDS011;520;50.932;6.962;2023-12-20T08:03:44;10.80;;;3.17;;
1062;SDS011;520;50.932;6.962;2023-12-20T08:06:30;6.27;;;3.57;;
1062;SDS011;520;50.932;6.962;2023-12-20T08:20:35;7.90;;;3.20;;
1062;SDS011;520;50.932;6.962;2023-12-20T08:23:12;11.87;;;3.77;;
1062;SDS011;520;50.932;6.962;2023-12-20T08:29:36;6.97;;;3.37;;
1062;SDS011;520;50.932;6.962;2023-12-20T08:32:37;8.27;;;3.70;;
1062;SDS011;520;50.932;6.962;2023-12-20T08:35:27;5.63;;;2.87;;
1062;SDS011;520;50.932;6.962;2023-12-20T08:38:28;12.10;;;4.27;;
1062;SDS011;520;50.932;6.962;2023-12-20T08:48:42;17.13;;;4.60;;
1062;SDS011;520;50.932;6.962;2023-12-20T09:06:00;9.33;;;3.50;;
1062;SDS011;520;50.932;6.962;2023-12-20T09:08:45;8.27;;;3.00;;
1062;SDS011;520;50.932;6.962;2023-12-20T09:11:37;10.03;;;3.30;;
1062;SDS011;520;50.932;6.962;2023-12-20T09:14:47;9.50;;;3.17;;
1062;SDS011;520;50.932;6.962;2023-12-20T09:17:31;5.67;;;3.10;;
1062;SDS011;520;50.932;6.962;2023-12-20T09:20:46;7.03;;;3.30;;
1062;SDS011;520;50.932;6.962;2023-12-20T09:23:27;8.83;;;2.97;;
1062;SDS011;520;50.932;6.962;2023-12-20T09:26:05;6.93;;;2.90;;
1062;SDS011;520;50.932;6.962;2023-12-20T09:32:11;7.40;;;3.07;;
1062;SDS011;520;50.932;6.962;2023-12-20T09:34:47;6.77;;;2.90;;
1062;SDS011;520;50.932;6.962;2023-12-20T09:37:53;14.00;;;2.97;;
1062;SDS011;520;50.932;6.962;2023-12-20T09:41:06;5.37;;;2.70;;
1062;SDS011;520;50.932;6.962;2023-12-20T09:43:43;5.23;;;2.57;;
1062;SDS011;520;50.932;6.962;2023-12-20T09:46:38;7.20;;;2.90;;
1062;SDS011;520;50.932;6.962;2023-12-20T09:49:11;8.60;;;2.90;;
1062;SDS011;520;50.932;6.962;2023-12-20T09:51:47;7.40;;;2.63;;
1062;SDS011;520;50.932;6.962;2023-12-20T09:54:42;5.33;;;3.07;;
1062;SDS011;520;50.932;6.962;2023-12-20T09:57:17;9.50;;;3.03;;
1062;SDS011;520;50.932;6.962;2023-12-20T10:00:11;11.87;;;3.13;;
1062;SDS011;520;50.932;6.962;2023-12-20T10:03:05;12.40;;;3.57;;
1062;SDS011;520;50.932;6.962;2023-12-20T10:06:11;8.23;;;2.93;;
1062;SDS011;520;50.932;6.962;2023-12-20T10:09:23;8.30;;;2.73;;
1062;SDS011;520;50.932;6.962;2023-12-20T10:12:12;6.70;;;2.70;;
1062;SDS011;520;50.932;6.962;2023-12-20T10:15:01;9.30;;;3.20;;
1062;SDS011;520;50.932;6.962;2023-12-20T10:17:48;12.23;;;2.80;;
1062;SDS011;520;50.932;6.962;2023-12-20T10:23:52;10.57;;;2.57;;
1062;SDS011;520;50.932;6.962;2023-12-20T10:27:07;7.23;;;2.20;;
1062;SDS011;520;50.932;6.962;2023-12-20T10:29:40;9.30;;;2.50;;
1062;SDS011;520;50.932;6.962;2023-12-20T10:35:04;4.47;;;2.67;;
1062;SDS011;520;50.932;6.962;2023-12-20T10:38:11;8.90;;;3.17;;
1062;SDS011;520;50.932;6.962;2023-12-20T10:41:29;9.30;;;2.70;;
1062;SDS011;520;50.932;6.962;2023-12-20T10:49:47;6.90;;;2.93;;
1062;SDS011;520;50.932;6.962;2023-12-20T10:59:15;6.23;;;2.50;;
1062;SDS011;520;50.932;6.962;2023-12-20T11:02:00;4.77;;;2.50;;
1062;SDS011;520;50.932;6.962;2023-12-20T11:14:22;7.97;;;2.47;;
1062;SDS011;520;50.932;6.962;2023-12-20T11:17:06;9.20;;;2.40;;
1062;SDS011;520;50.932;6.962;2023-12-20T11:20:20;10.27;;;3.43;;
1062;SDS011;520;50.932;6.962;2023-12-20T11:23:09;6.50;;;2.43;;
1062;SDS011;520;50.932;6.962;2023-12-20T11:26:15;4.40;;;2.00;;
1062;SDS011;520;50.932;6.962;2023-12-20T11:29:06;5.27;;;2.37;;
1062;SDS011;520;50.932;6.962;2023-12-20T11:31:50;10.43;;;2.33;;
1062;SDS011;520;50.932;6.962;2023-12-20T11:34:36;11.63;;;3.97;;
1062;SDS011;520;50.932;6.962;2023-12-20T11:37:22;4.67;;;1.80;;
1062;SDS011;520;50.932;6.962;2023-12-20T11:40:06;5.70;;;2.30;;
1062;SDS011;520;50.932;6.962;2023-12-20T11:54:03;7.47;;;2.87;;
1062;SDS011;520;50.932;6.962;2023-12-20T11:56:52;3.57;;;2.10;;
1062;SDS011;520;50.932;6.962;2023-12-20T11:59:44;6.80;;;2.23;;
1062;SDS011;520;50.932;6.962;2023-12-20T12:02:21;8.67;;;2.40;;
1062;SDS011;520;50.932;6.962;2023-12-20T12:04:55;8.80;;;2.00;;
1062;SDS011;520;50.932;6.962;2023-12-20T12:07:40;9.80;;;2.73;;
1062;SDS011;520;50.932;6.962;2023-12-20T12:10:24;10.33;;;3.10;;
1062;SDS011;520;50.932;6.962;2023-12-20T12:13:23;5.00;;;2.50;;
1062;SDS011;520;50.932;6.962;2023-12-20T12:16:22;10.43;;;2.83;;
1062;SDS011;520;50.932;6.962;2023-12-20T12:26:33;6.57;;;2.57;;
1062;SDS011;520;50.932;6.962;2023-12-20T12:29:29;5.63;;;2.53;;
1062;SDS011;520;50.932;6.962;2023-12-20T12:32:24;6.70;;;2.60;;
1062;SDS011;520;50.932;6.962;2023-12-20T12:34:55;8.20;;;2.80;;
1062;SDS011;520;50.932;6.962;2023-12-20T12:37:27;9.50;;;2.43;;
1062;SDS011;520;50.932;6.962;2023-12-20T12:40:01;3.57;;;2.27;;
1062;SDS011;520;50.932;6.962;2023-12-20T12:42:33;10.50;;;4.17;;
1062;SDS011;520;50.932;6.962;2023-12-20T12:45:25;6.23;;;2.80;;
1062;SDS011;520;50.932;6.962;2023-12-20T13:01:51;6.17;;;2.70;;
1062;SDS011;520;50.932;6.962;2023-12-20T13:04:56;7.07;;;3.50;;
1062;SDS011;520;50.932;6.962;2023-12-20T13:07:51;8.40;;;2.87;;
1062;SDS011;520;50.932;6.962;2023-12-20T13:10:32;7.13;;;2.67;;
1062;SDS011;520;50.932;6.962;2023-12-20T13:13:02;7.87;;;2.53;;
1062;SDS011;520;50.932;6.962;2023-12-20T13:15:34;8.20;;;3.67;;
1062;SDS011;520;50.932;6.962;2023-12-20T13:18:08;9.33;;;2.90;;
1062;SDS011;520;50.932;6.962;2023-12-20T13:20:51;8.67;;;3.47;;
1062;SDS011;520;50.932;6.962;2023-12-20T13:27:00;8.67;;;3.50;;
1062;SDS011;520;50.932;6.962;2023-12-20T13:29:28;7.70;;;2.50;;
1062;SDS011;520;50.932;6.962;2023-12-20T13:32:18;6.00;;;3.50;;
1062;SDS011;520;50.932;6.962;2023-12-20T13:35:21;9.97;;;3.17;;
1062;SDS011;520;50.932;6.962;2023-12-20T13:37:59;15.03;;;3.93;;
1062;SDS011;520;50.932;6.962;2023-12-20T13:40:47;9.47;;;3.27;;
1062;SDS011;520;50.932;6.962;2023-12-20T13:43:25;10.90;;;3.20;;
1062;SDS011;520;50.932;6.962;2023-12-20T13:45:58;6.73;;;3.03;;
1062;SDS011;520;50.932;6.962;2023-12-20T13:48:50;8.23;;;2.87;;
1062;SDS011;520;50.932;6.962;2023-12-20T13:51:23;6.23;;;2.80;;
1062;SDS011;520;50.932;6.962;2023-12-20T13:53:53;8.67;;;2.97;;
1062;SDS011;520;50.932;6.962;2023-12-20T13:56:29;7.13;;;3.07;;
1062;SDS011;520;50.932;6.962;2023-12-20T13:59:24;5.10;;;2.30;;
1062;SDS011;520;50.932;6.962;2023-12-20T14:02:04;5.17;;;2.77;;
1062;SDS011;520;50.932;6.962;2023-12-20T14:07:40;4.20;;;2.83;;
1062;SDS011;520;50.932;6.962;2023-12-20T14:10:21;9.07;;;2.60;;
1062;SDS011;520;50.932;6.962;2023-12-20T14:13:12;3.57;;;2.30;;
1062;SDS011;520;50.932;6.962;2023-12-20T14:16:13;5.40;;;2.60;;
1062;SDS011;520;50.932;6.962;2023-12-20T14:18:58;7.97;;;2.80;;
1062;SDS011;520;50.932;6.962;2023-12-20T14:21:55;6.43;;;2.30;;
1062;SDS011;520;50.932;6.962;2023-12-20T14:24:51;4.87;;;2.37;;
1062;SDS011;520;50.932;6.962;2023-12-20T14:27:42;6.17;;;2.70;;
1062;SDS011;520;50.932;6.962;2023-12-20T14:30:31;7.67;;;2.63;;
1062;SDS011;520;50.932;6.962;2023-12-20T14:33:24;5.00;;;2.30;;
1062;SDS011;520;50.932;6.962;2023-12-20T14:36:07;4.00;;;2.40;;
1062;SDS011;520;50.932;6.962;2023-12-20T14:38:45;8.27;;;4.40;;
1062;SDS011;520;50.932;6.962;2023-12-20T14:41:30;5.20;;;2.60;;
1062;SDS011;520;50.932;6.962;2023-12-20T14:44:01;5.23;;;2.60;;
1062;SDS011;520;50.932;6.962;2023-12-20T14:46:52;3.50;;;3.20;;
1062;SDS011;520;50.932;6.962;2023-12-20T14:49:38;5.33;;;2.20;;
1062;SDS011;520;50.932;6.962;2023-12-20T14:52:20;6.77;;;3.13;;
1062;SDS011;520;50.932;6.962;2023-12-20T14:55:00;9.70;;;4.13;;
1062;SDS011;520;50.932;6.962;2023-12-20T14:57:36;4.87;;;2.53;;
1062;SDS011;520;50.932;6.962;2023-12-20T15:00:23;3.97;;;2.37;;
1062;SDS011;520;50.932;6.962;2023-12-20T15:06:00;7.10;;;2.30;;
1062;SDS011;520;50.932;6.962;2023-12-20T15:09:07;2.40;;;2.07;;
1062;SDS011;520;50.932;6.962;2023-12-20T15:15:58;4.60;;;2.20;;
1062;SDS011;520;50.932;6.962;2023-12-20T15:18:43;3.60;;;2.30;;
1062;SDS011;520;50.932;6.962;2023-12-20T15:21:18;4.13;;;2.40;;
1062;SDS011;520;50.932;6.962;2023-12-20T15:23:50;4.27;;;2.80;;
1062;SDS011;520;50.932;6.962;2023-12-20T15:26:55;3.57;;;2.57;;
1062;SDS011;520;50.932;6.962;2023-12-20T15:29:39;9.77;;;3.13;;
1062;SDS011;520;50.932;6.962;2023-12-20T15:32:55;6.13;;;2.20;;
1062;SDS011;520;50.932;6.962;2023-12-20T15:35:33;4.47;;;2.50;;
1062;SDS011;520;50.932;6.962;2023-12-20T15:41:18;8.67;;;2.50;;
1062;SDS011;520;50.932;6.962;2023-12-20T15:43:56;7.80;;;2.53;;
1062;SDS011;520;50.932;6.962;2023-12-20T15:46:29;4.00;;;2.50;;
1062;SDS011;520;50.932;6.962;2023-12-20T15:49:13;7.37;;;3.50;;
1062;SDS011;520;50.932;6.962;2023-12-20T15:51:56;6.50;;;2.93;;
1062;SDS011;520;50.932;6.962;2023-12-20T15:54:39;6.40;;;2.83;;
1062;SDS011;520;50.932;6.962;2023-12-20T15:57:23;4.27;;;2.83;;
1062;SDS011;520;50.932;6.962;2023-12-20T15:59:58;11.43;;;2.80;;
1062;SDS011;520;50.932;6.962;2023-12-20T16:02:25;6.10;;;3.27;;
1062;SDS011;520;50.932;6.962;2023-12-20T16:05:08;8.80;;;3.80;;
1062;SDS011;520;50.932;6.962;2023-12-20T16:07:44;12.17;;;3.87;;
1062;SDS011;520;50.932;6.962;2023-12-20T16:10:17;4.80;;;3.33;;
1062;SDS011;520;50.932;6.962;2023-12-20T16:12:54;5.73;;;2.73;;
1062;SDS011;520;50.932;6.962;2023-12-20T16:15:31;9.23;;;3.80;;
1062;SDS011;520;50.932;6.962;2023-12-20T16:18:13;3.33;;;2.93;;
1062;SDS011;520;50.932;6.962;2023-12-20T16:20:43;6.57;;;3.70;;
1062;SDS011;520;50.932;6.962;2023-12-20T16:23:13;9.77;;;3.43;;
1062;SDS011;520;50.932;6.962;2023-12-20T16:25:49;6.70;;;3.17;;
1062;SDS011;520;50.932;6.962;2023-12-20T16:28:29;7.67;;;3.57;;
1062;SDS011;520;50.932;6.962;2023-12-20T16:31:05;3.90;;;2.73;;
1062;SDS011;520;50.932;6.962;2023-12-20T16:33:46;8.50;;;3.50;;
1062;SDS011;520;50.932;6.962;2023-12-20T16:36:33;5.93;;;3.00;;
1062;SDS011;520;50.932;6.962;2023-12-20T16:39:24;5.33;;;3.70;;
1062;SDS011;520;50.932;6.962;2023-12-20T16:41:57;10.37;;;4.10;;
1062;SDS011;520;50.932;6.962;2023-12-20T16:44:41;10.80;;;3.23;;
1062;SDS011;520;50.932;6.962;2023-12-20T16:47:26;13.63;;;3.90;;
1062;SDS011;520;50.932;6.962;2023-12-20T16:49:55;7.60;;;3.30;;
1062;SDS011;520;50.932;6.962;2023-12-20T16:52:49;5.60;;;3.20;;
1062;SDS011;520;50.932;6.962;2023-12-20T16:55:27;5.20;;;3.10;;
1062;SDS011;520;50.932;6.962;2023-12-20T16:58:06;8.17;;;3.57;;
1062;SDS011;520;50.932;6.962;2023-12-20T17:00:39;6.27;;;3.67;;
1062;SDS011;520;50.932;6.962;2023-12-20T17:03:14;4.87;;;3.40;;
1062;SDS011;520;50.932;6.962;2023-12-20T17:05:54;9.10;;;3.70;;
1062;SDS011;520;50.932;6.962;2023-12-20T17:08:34;4.20;;;3.23;;
1062;SDS011;520;50.932;6.962;2023-12-20T17:11:10;7.20;;;3.40;;
1062;SDS011;520;50.932;6.962;2023-12-20T17:13:42;6.97;;;3.70;;
1062;SDS011;520;50.932;6.962;2023-12-20T17:16:35;8.30;;;3.37;;
1062;SDS011;520;50.932;6.962;2023-12-20T17:19:09;3.83;;;3.13;;
1062;SDS011;520;50.932;6.962;2023-12-20T17:21:41;6.03;;;2.60;;
1062;SDS011;520;50.932;6.962;2023-12-20T17:24:27;7.23;;;3.40;;
1062;SDS011;520;50.932;6.962;2023-12-20T17:27:03;8.60;;;4.07;;
1062;SDS011;520;50.932;6.962;2023-12-20T17:29:35;9.37;;;3.40;;
1062;SDS011;520;50.932;6.962;2023-12-20T17:32:09;6.90;;;5.20;;
1062;SDS011;520;50.932;6.962;2023-12-20T17:35:11;10.13;;;3.37;;
1062;SDS011;520;50.932;6.962;2023-12-20T17:37:52;6.80;;;3.50;;
1062;SDS011;520;50.932;6.962;2023-12-20T17:40:30;13.23;;;4.07;;
1062;SDS011;520;50.932;6.962;2023-12-20T17:43:14;9.77;;;4.17;;
1062;SDS011;520;50.932;6.962;2023-12-20T17:45:58;6.93;;;4.00;;
1062;SDS011;520;50.932;6.962;2023-12-20T17:48:57;7.73;;;3.60;;
1062;SDS011;520;50.932;6.962;2023-12-20T17:51:48;5.50;;;3.23;;
1062;SDS011;520;50.932;6.962;2023-12-20T17:54:18;4.67;;;3.27;;
1062;SDS011;520;50.932;6.962;2023-12-20T17:56:49;4.20;;;3.50;;
1062;SDS011;520;50.932;6.962;2023-12-20T17:59:19;8.43;;;3.33;;
1062;SDS011;520;50.932;6.962;2023-12-20T18:02:04;6.70;;;3.23;;
1062;SDS011;520;50.932;6.962;2023-12-20T18:04:54;6.13;;;3.30;;
1062;SDS011;520;50.932;6.962;2023-12-20T18:07:37;8.27;;;3.40;;
1062;SDS011;520;50.932;6.962;2023-12-20T18:10:43;7.03;;;3.60;;
1062;SDS011;520;50.932;6.962;2023-12-20T18:13:14;5.50;;;3.20;;
1062;SDS011;520;50.932;6.962;2023-12-20T18:15:47;6.57;;;3.30;;
1062;SDS011;520;50.932;6.962;2023-12-20T18:22:02;6.77;;;3.70;;
1062;SDS011;520;50.932;6.962;2023-12-20T18:24:46;9.80;;;3.50;;
1062;SDS011;520;50.932;6.962;2023-12-20T18:27:25;9.80;;;3.47;;
1062;SDS011;520;50.932;6.962;2023-12-20T18:30:09;7.40;;;3.87;;
1062;SDS011;520;50.932;6.962;2023-12-20T18:32:51;6.10;;;3.20;;
1062;SDS011;520;50.932;6.962;2023-12-20T18:35:30;5.70;;;2.90;;
1062;SDS011;520;50.932;6.962;2023-12-20T18:38:04;3.40;;;2.50;;
1062;SDS011;520;50.932;6.962;2023-12-20T18:40:44;4.67;;;2.77;;
1062;SDS011;520;50.932;6.962;2023-12-20T18:43:21;4.87;;;2.50;;
1062;SDS011;520;50.932;6.962;2023-12-20T18:45:59;8.30;;;3.07;;
1062;SDS011;520;50.932;6.962;2023-12-20T18:48:44;7.40;;;3.43;;
1062;SDS011;520;50.932;6.962;2023-12-20T18:51:31;7.47;;;3.87;;
1062;SDS011;520;50.932;6.962;2023-12-20T18:54:05;6.03;;;3.70;;
1062;SDS011;520;50.932;6.962;2023-12-20T18:56:45;7.57;;;3.40;;
1062;SDS011;520;50.932;6.962;2023-12-20T18:59:24;3.63;;;3.30;;
1062;SDS011;520;50.932;6.962;2023-12-20T19:02:10;9.10;;;3.27;;
1062;SDS011;520;50.932;6.962;2023-12-20T19:04:45;6.87;;;2.93;;
1062;SDS011;520;50.932;6.962;2023-12-20T19:09:59;7.37;;;3.20;;
1062;SDS011;520;50.932;6.962;2023-12-20T19:12:37;3.90;;;3.17;;
1062;SDS011;520;50.932;6.962;2023-12-20T19:15:12;7.17;;;2.63;;
1062;SDS011;520;50.932;6.962;2023-12-20T19:17:53;6.93;;;2.97;;
1062;SDS011;520;50.932;6.962;2023-12-20T19:20:25;11.27;;;4.43;;
1062;SDS011;520;50.932;6.962;2023-12-20T19:22:53;7.03;;;3.30;;
1062;SDS011;520;50.932;6.962;2023-12-20T19:25:24;5.10;;;2.57;;
1062;SDS011;520;50.932;6.962;2023-12-20T19:28:10;5.33;;;2.47;;
1062;SDS011;520;50.932;6.962;2023-12-20T19:30:52;3.03;;;2.50;;
1062;SDS011;520;50.932;6.962;2023-12-20T19:33:40;5.33;;;2.63;;
1062;SDS011;520;50.932;6.962;2023-12-20T19:36:09;10.33;;;3.23;;
1062;SDS011;520;50.932;6.962;2023-12-20T19:38:43;5.60;;;3.23;;
1062;SDS011;520;50.932;6.962;2023-12-20T19:41:25;5.60;;;3.00;;
1062;SDS011;520;50.932;6.962;2023-12-20T19:43:56;5.57;;;2.87;;
1062;SDS011;520;50.932;6.962;2023-12-20T19:46:36;5.43;;;3.00;;
1062;SDS011;520;50.932;6.962;2023-12-20T19:49:18;5.13;;;3.53;;
1062;SDS011;520;50.932;6.962;2023-12-20T19:51:54;5.57;;;3.00;;
1062;SDS011;520;50.932;6.962;2023-12-20T19:54:52;8.77;;;3.20;;
1062;SDS011;520;50.932;6.962;2023-12-20T19:57:21;2.40;;;2.13;;
1062;SDS011;520;50.932;6.962;2023-12-20T19:59:57;5.47;;;2.80;;
1062;SDS011;520;50.932;6.962;2023-12-20T20:02:34;6.83;;;3.00;;
1062;SDS011;520;50.932;6.962;2023-12-20T20:05:07;6.17;;;3.07;;
1062;SDS011;520;50.932;6.962;2023-12-20T20:07:42;10.90;;;3.00;;
1062;SDS011;520;50.932;6.962;2023-12-20T20:10:16;7.83;;;3.00;;
1062;SDS011;520;50.932;6.962;2023-12-20T20:13:04;5.33;;;2.93;;